Time;durP1;ratioP1;P1;durP2;ratioP2;P2;SDS_P1;SDS_P2;PMS_P1;PMS_P2;Temp;Humidity;BMP_temperature;BMP_pressure;BME280_temperature;BME280_humidity;BME280_pressure;Samples;Min_cycle;Max_cycle;Signal;HPM_P1;HPM_P2
2023/05/28 00:00:32;;;;;;;15.07;9.20;;;;;;;16.55;62.26;101934.00;5173971;28;20034;-71
2023/05/28 00:03:04;;;;;;;15.90;8.93;;;;;;;16.71;61.21;101938.25;5189490;28;20033;-71
2023/05/28 00:05:35;;;;;;;18.87;8.87;;;;;;;16.98;59.60;101939.94;5197766;28;20121;-71
2023/05/28 00:08:06;;;;;;;15.77;8.30;;;;;;;17.00;59.47;101940.69;5202758;28;20045;-70
2023/05/28 00:10:38;;;;;;;16.27;8.50;;;;;;;17.03;59.26;101935.19;5188133;28;20034;-71
2023/05/28 00:13:09;;;;;;;16.03;8.13;;;;;;;16.63;61.38;101930.84;5229386;28;20038;-70
2023/05/28 00:15:40;;;;;;;22.77;9.13;;;;;;;16.89;60.43;101930.84;5255140;28;20076;-70
2023/05/28 00:18:14;;;;;;;14.77;8.23;;;;;;;16.84;60.58;101923.25;5190087;28;20042;-71
2023/05/28 00:20:45;;;;;;;17.95;8.82;;;;;;;16.86;60.26;101915.19;5271978;28;20051;-69
2023/05/28 00:23:17;;;;;;;17.13;9.47;;;;;;;16.33;63.11;101919.63;5252151;28;20022;-71
2023/05/28 00:25:48;;;;;;;15.07;8.47;;;;;;;16.44;62.61;101917.09;5242431;28;20032;-71
2023/05/28 00:28:19;;;;;;;17.33;9.60;;;;;;;16.14;64.99;101917.38;5207630;28;20037;-71
2023/05/28 00:30:51;;;;;;;19.07;9.40;;;;;;;15.89;66.07;101919.78;5179640;28;20035;-71
2023/05/28 00:33:22;;;;;;;15.13;9.30;;;;;;;16.18;64.37;101916.22;5222854;28;20505;-70
2023/05/28 00:35:55;;;;;;;13.97;8.57;;;;;;;16.29;63.45;101915.47;5244883;28;20475;-69
2023/05/28 00:38:27;;;;;;;18.85;8.75;;;;;;;15.88;66.38;101919.91;5242421;28;20089;-70
2023/05/28 00:40:58;;;;;;;12.27;8.07;;;;;;;15.69;67.15;101924.56;5294738;28;20473;-70
2023/05/28 00:43:29;;;;;;;17.90;9.80;;;;;;;15.64;68.07;101929.31;5214160;28;20104;-71
2023/05/28 00:46:02;;;;;;;16.80;9.43;;;;;;;15.69;68.34;101927.22;5189604;28;20035;-71
2023/05/28 00:48:34;;;;;;;17.03;8.33;;;;;;;16.04;66.07;101930.34;5188540;28;20026;-71
2023/05/28 00:51:07;;;;;;;18.53;9.93;;;;;;;15.60;68.34;101927.81;5171807;28;20057;-71
2023/05/28 00:53:40;;;;;;;20.03;8.93;;;;;;;16.11;64.98;101910.47;5187749;28;20035;-71
2023/05/28 00:56:13;;;;;;;17.07;9.37;;;;;;;16.06;65.15;101917.84;5291724;28;20032;-71
2023/05/28 00:58:48;;;;;;;16.73;8.90;;;;;;;16.05;65.31;101926.75;5295260;28;20508;-71
2023/05/28 01:01:20;;;;;;;18.10;9.17;;;;;;;15.75;66.94;101915.41;5295087;28;20123;-71
2023/05/28 01:03:51;;;;;;;21.83;10.93;;;;;;;15.54;68.65;101915.00;5294783;28;20674;-71
2023/05/28 01:06:23;;;;;;;19.77;9.70;;;;;;;15.83;66.59;101917.56;5271896;28;20153;-71
2023/05/28 01:11:52;;;;;;;;;;;;;;;;;;;;;
2023/05/28 01:14:48;;;;;;;17.20;9.17;;;;;;;15.69;66.99;101921.94;5153589;28;20027;-81
2023/05/28 01:17:58;;;;;;;;;;;;;;;;;;;;;
2023/05/28 01:21:31;;;;;;;16.37;9.43;;;;;;;16.17;63.60;101912.72;5159134;28;20030;-82
2023/05/28 01:24:51;;;;;;;15.13;8.90;;;;;;;15.64;64.80;101849.25;5032477;29;20038;-81
2023/05/28 01:31:23;;;;;;;19.03;9.57;;;;;;;15.53;66.11;101865.78;5138920;29;20039;-82
2023/05/28 01:34:27;;;;;;;18.57;8.57;;;;;;;15.83;65.90;101907.00;5110669;28;20044;-82
2023/05/28 01:37:17;;;;;;;16.70;10.30;;;;;;;15.77;65.51;101897.69;5107963;28;20469;-79
2023/05/28 01:39:56;;;;;;;16.10;11.40;;;;;;;15.76;67.11;101926.84;5105222;29;20044;-80
2023/05/28 01:42:32;;;;;;;18.33;10.47;;;;;;;15.44;69.23;101926.16;5133294;28;20459;-80
2023/05/28 01:45:06;;;;;;;18.33;10.70;;;;;;;15.18;68.85;101859.19;5198611;28;20067;-80
2023/05/28 01:47:38;;;;;;;14.57;10.40;;;;;;;15.36;70.02;101910.81;5214301;28;20022;-80
2023/05/28 01:50:10;;;;;;;18.53;9.90;;;;;;;15.10;71.90;101907.16;5214627;28;20026;-80
2023/05/28 01:52:45;;;;;;;17.97;10.37;;;;;;;14.70;73.19;101882.28;5197514;28;20030;-80
2023/05/28 01:55:16;;;;;;;15.27;9.77;;;;;;;14.96;73.31;101900.09;5239260;28;20044;-80
2023/05/28 01:57:48;;;;;;;21.20;10.50;;;;;;;15.10;72.89;101907.16;5254464;28;20032;-80
2023/05/28 02:00:22;;;;;;;15.57;10.20;;;;;;;14.95;73.24;101896.63;5224299;28;20027;-80
2023/05/28 02:02:53;;;;;;;18.98;10.65;;;;;;;14.81;73.50;101896.63;5150983;29;20150;-80
2023/05/28 02:05:27;;;;;;;14.07;10.03;;;;;;;14.81;74.07;101900.13;5155391;28;20470;-80
2023/05/28 02:07:59;;;;;;;21.48;11.38;;;;;;;14.72;74.31;101888.31;5173383;28;20031;-80
2023/05/28 02:10:31;;;;;;;23.93;10.47;;;;;;;14.70;75.57;101895.47;5150528;29;20051;-80
2023/05/28 02:13:03;;;;;;;17.53;9.83;;;;;;;14.72;75.64;101898.84;5154034;28;20077;-80
2023/05/28 02:15:36;;;;;;;20.53;10.93;;;;;;;14.93;72.82;101866.84;5151245;29;20023;-80
2023/05/28 02:18:10;;;;;;;15.13;9.55;;;;;;;15.02;72.98;101896.25;5152008;29;20122;-80
2023/05/28 02:20:42;;;;;;;18.73;10.07;;;;;;;14.97;72.35;101872.78;5151356;29;20028;-80
2023/05/28 02:23:14;;;;;;;16.53;10.10;;;;;;;14.57;75.06;101865.50;5153344;28;20629;-80
2023/05/28 02:25:47;;;;;;;19.27;10.13;;;;;;;14.77;74.68;101859.00;5152149;28;20039;-80
2023/05/28 02:28:19;;;;;;;17.80;10.25;;;;;;;14.25;76.54;101840.16;5152736;28;20038;-80
2023/05/28 02:30:50;;;;;;;19.90;10.17;;;;;;;14.54;75.40;101852.53;5152808;28;20019;-80
2023/05/28 02:33:22;;;;;;;18.20;10.40;;;;;;;14.76;74.17;101866.09;5153461;28;20019;-80
2023/05/28 02:35:54;;;;;;;13.37;10.03;;;;;;;14.72;74.08;101859.31;5151691;28;20023;-80
2023/05/28 02:38:25;;;;;;;19.53;10.53;;;;;;;14.56;75.57;101871.72;5152933;28;20387;-80
2023/05/28 02:40:57;;;;;;;18.23;10.47;;;;;;;14.37;75.10;101852.59;5150546;28;20043;-80
2023/05/28 02:43:31;;;;;;;17.10;10.17;;;;;;;14.91;72.60;101874.00;5152240;28;20143;-80
2023/05/28 02:46:02;;;;;;;18.30;9.93;;;;;;;14.81;72.76;101857.06;5167615;28;20035;-80
2023/05/28 02:48:34;;;;;;;16.57;10.27;;;;;;;14.55;73.49;101844.53;5152977;28;20019;-81
2023/05/28 02:51:06;;;;;;;16.70;10.07;;;;;;;14.69;73.55;101863.91;5151917;28;20019;-81
2023/05/28 02:53:37;;;;;;;20.57;10.80;;;;;;;14.56;74.33;101876.97;5149657;28;20027;-80
2023/05/28 02:56:09;;;;;;;18.73;9.43;;;;;;;14.41;75.28;101866.44;5166573;28;20033;-80
2023/05/28 02:58:40;;;;;;;22.47;10.90;;;;;;;14.52;74.53;101869.25;5166535;28;20118;-80
2023/05/28 03:01:11;;;;;;;18.27;10.20;;;;;;;14.61;73.00;101862.59;5152632;28;20027;-80
2023/05/28 03:03:43;;;;;;;19.47;11.17;;;;;;;14.57;74.36;101897.16;5150793;28;20023;-80
2023/05/28 03:06:15;;;;;;;18.97;11.57;;;;;;;13.88;77.45;101849.28;5181875;28;20025;-80
2023/05/28 03:08:46;;;;;;;19.30;10.53;;;;;;;14.51;74.53;101898.34;5171206;28;20026;-80
2023/05/28 03:11:17;;;;;;;22.37;11.83;;;;;;;14.35;74.99;101887.88;5170055;28;20046;-80
2023/05/28 03:13:49;;;;;;;17.90;10.73;;;;;;;14.25;74.91;101870.00;5162531;28;20030;-80
2023/05/28 03:16:25;;;;;;;19.43;10.10;;;;;;;14.51;74.14;101888.66;5174626;28;20046;-82
2023/05/28 03:18:57;;;;;;;11.77;8.57;;;;;;;13.83;78.14;101874.19;5151126;28;20434;-82
2023/05/28 03:21:28;;;;;;;20.00;9.70;;;;;;;13.94;75.41;101836.69;5154128;28;20023;-79
2023/05/28 03:24:02;;;;;;;16.37;9.37;;;;;;;14.35;76.33;101898.41;5154251;28;20528;-79
2023/05/28 03:26:33;;;;;;;15.40;8.73;;;;;;;13.95;76.76;101851.56;5170130;28;20135;-79
2023/05/28 03:29:05;;;;;;;19.07;10.43;;;;;;;13.90;76.40;101862.34;5172071;28;20027;-80
2023/05/28 03:31:45;;;;;;;16.73;9.63;;;;;;;13.90;77.98;101860.59;5166296;28;20035;-81
2023/05/28 03:34:17;;;;;;;16.27;10.00;;;;;;;13.91;78.22;101872.81;5154179;28;20097;-80
2023/05/28 03:36:53;;;;;;;16.83;8.80;;;;;;;13.85;77.66;101862.63;5169484;28;20035;-80
2023/05/28 03:39:25;;;;;;;18.00;9.07;;;;;;;14.05;75.05;101855.34;5153479;28;20030;-79
2023/05/28 03:41:56;;;;;;;28.33;9.43;;;;;;;13.99;76.24;101875.00;5170343;28;20023;-79
2023/05/28 03:44:28;;;;;;;17.97;9.47;;;;;;;14.28;75.02;101898.78;5151097;28;20056;-80
2023/05/28 03:46:59;;;;;;;15.43;8.90;;;;;;;14.10;74.70;101860.34;5150087;28;20077;-80
2023/05/28 03:49:31;;;;;;;17.53;9.97;;;;;;;13.61;77.71;101854.34;5149711;28;20340;-80
2023/05/28 03:52:05;;;;;;;16.63;9.10;;;;;;;13.96;75.51;101862.03;5169906;28;20387;-80
2023/05/28 03:54:37;;;;;;;;;;;;;;;14.87;69.67;101918.19;5171958;28;20501;-80
2023/05/28 03:57:08;;;;;;;21.40;9.47;;;;;;;14.31;74.56;101907.44;5152729;28;19918;-80
2023/05/28 03:59:40;;;;;;;20.87;9.37;;;;;;;14.12;76.09;101913.81;5153547;28;20039;-80
2023/05/28 04:02:14;;;;;;;18.57;8.10;;;;;;;13.96;76.24;101882.22;5146852;28;20027;-80
2023/05/28 04:04:51;;;;;;;16.23;10.25;;;;;;;14.12;76.39;101898.00;5133669;28;20027;-80
2023/05/28 04:07:25;;;;;;;18.43;9.57;;;;;;;13.89;76.92;101879.09;5134367;28;20020;-80
2023/05/28 04:09:56;;;;;;;15.93;8.95;;;;;;;14.00;77.83;101905.66;5150593;28;20462;-80
2023/05/28 04:12:30;;;;;;;13.47;8.00;;;;;;;13.77;77.39;101864.88;5151391;29;20106;-82
2023/05/28 04:15:11;;;;;;;13.70;9.10;;;;;;;13.90;76.86;101871.13;5152053;28;20638;-82
2023/05/28 04:17:52;;;;;;;16.47;9.13;;;;;;;14.08;76.61;101876.25;5150636;29;20035;-81
2023/05/28 04:20:27;;;;;;;16.80;8.67;;;;;;;13.83;77.75;101863.66;5151939;28;20031;-82
2023/05/28 04:23:01;;;;;;;17.27;9.63;;;;;;;14.03;78.02;101916.00;5166874;28;20520;-80
2023/05/28 04:25:36;;;;;;;18.83;8.80;;;;;;;14.05;77.37;101896.66;5170166;28;20482;-80
2023/05/28 04:28:11;;;;;;;19.03;9.57;;;;;;;13.84;82.34;101915.38;5154541;28;20151;-80
2023/05/28 04:30:44;;;;;;;14.10;8.10;;;;;;;13.83;78.26;101866.28;5171429;28;20031;-80
2023/05/28 04:33:22;;;;;;;18.40;9.10;;;;;;;13.79;80.22;101870.88;5171279;28;20034;-80
2023/05/28 04:35:59;;;;;;;18.40;8.23;;;;;;;13.98;78.83;101893.53;5153506;28;20386;-80
2023/05/28 04:38:35;;;;;;;18.70;8.90;;;;;;;13.86;79.43;101889.81;5170920;28;20039;-80
2023/05/28 04:41:17;;;;;;;17.60;8.93;;;;;;;13.60;83.35;101894.75;5153160;28;20026;-83
2023/05/28 04:43:49;;;;;;;20.30;10.37;;;;;;;13.43;84.64;101873.69;5171302;28;20035;-81
2023/05/28 04:46:25;;;;;;;20.00;9.87;;;;;;;13.87;84.67;101938.91;5154280;28;20027;-80
2023/05/28 04:49:04;;;;;;;18.27;10.00;;;;;;;13.57;85.50;101900.19;5154013;28;20462;-80
2023/05/28 04:51:39;;;;;;;18.13;9.40;;;;;;;13.98;83.34;101920.69;5170873;28;20034;-81
2023/05/28 04:54:15;;;;;;;21.53;9.93;;;;;;;13.79;85.51;101907.72;5171466;28;20039;-81
2023/05/28 04:56:49;;;;;;;17.20;8.70;;;;;;;13.77;85.22;101899.09;5170028;28;20368;-81
2023/05/28 04:59:20;;;;;;;20.38;9.32;;;;;;;13.90;86.28;101909.75;5153412;28;20042;-80
2023/05/28 05:02:07;;;;;;;19.23;9.50;;;;;;;14.06;84.93;101898.34;5153886;28;20386;-85
2023/05/28 05:04:43;;;;;;;18.67;9.47;;;;;;;13.67;87.37;101872.41;5153390;28;20150;-85
2023/05/28 05:07:33;;;;;;;19.97;8.67;;;;;;;14.15;85.00;101900.44;5171305;28;20118;-84
2023/05/28 05:10:09;;;;;;;15.27;8.97;;;;;;;14.23;85.89;101910.53;5148441;28;20044;-79
2023/05/28 05:12:41;;;;;;;21.50;10.57;;;;;;;13.90;88.30;101886.91;5148253;28;20035;-80
2023/05/28 05:15:14;;;;;;;20.50;8.97;;;;;;;14.23;86.80;101906.13;5149138;28;20352;-80
2023/05/28 05:17:48;;;;;;;15.85;9.73;;;;;;;14.14;88.80;101910.13;5166447;28;20028;-79
2023/05/28 05:20:19;;;;;;;18.98;10.57;;;;;;;14.20;87.29;101906.31;5169073;28;20046;-81
2023/05/28 05:22:54;;;;;;;19.27;10.10;;;;;;;14.34;88.16;101923.94;5153679;28;20367;-81
2023/05/28 05:25:28;;;;;;;16.83;9.35;;;;;;;14.27;89.13;101934.00;5153579;28;20030;-81
2023/05/28 05:28:00;;;;;;;19.50;10.38;;;;;;;14.24;89.14;101922.78;5232282;28;20498;-80
2023/05/28 05:30:31;;;;;;;15.87;9.90;;;;;;;14.36;87.79;101921.22;5257424;28;20083;-81
2023/05/28 05:33:03;;;;;;;19.87;11.37;;;;;;;14.28;89.77;101916.38;5258394;28;20033;-81
2023/05/28 05:35:34;;;;;;;24.23;10.43;;;;;;;14.41;86.75;101913.88;5258655;28;20039;-81
2023/05/28 05:38:06;;;;;;;20.67;10.40;;;;;;;14.34;87.27;101902.84;5258914;28;20060;-80
2023/05/28 05:40:42;;;;;;;20.23;10.50;;;;;;;14.24;89.89;101907.78;5258327;28;20021;-81
2023/05/28 05:43:18;;;;;;;21.83;10.87;;;;;;;14.34;90.93;101916.03;5258517;28;20489;-81
2023/05/28 05:45:52;;;;;;;18.67;9.30;;;;;;;14.59;92.40;101962.00;5257911;28;20039;-81
2023/05/28 05:48:27;;;;;;;20.60;10.27;;;;;;;14.86;90.80;101971.88;5259465;28;20029;-81
2023/05/28 05:51:02;;;;;;;18.43;10.63;;;;;;;14.60;91.81;101931.22;5172838;28;20027;-81
2023/05/28 05:53:42;;;;;;;18.40;9.90;;;;;;;14.78;90.19;101946.88;5151498;28;20035;-81
2023/05/28 05:56:17;;;;;;;18.27;10.47;;;;;;;14.74;89.99;101944.44;5136485;28;20055;-80
2023/05/28 05:58:49;;;;;;;18.50;9.50;;;;;;;14.63;91.13;101918.72;5151389;28;20092;-80
2023/05/28 06:01:21;;;;;;;29.17;12.20;;;;;;;14.88;89.73;101954.19;5153317;28;20031;-80
2023/05/28 06:03:52;;;;;;;23.67;10.87;;;;;;;14.68;88.41;101917.59;5152332;28;20027;-80
2023/05/28 06:06:24;;;;;;;18.50;10.80;;;;;;;14.65;88.65;101915.97;5152935;28;20129;-80
2023/05/28 06:08:55;;;;;;;18.57;10.70;;;;;;;14.91;89.31;101939.94;5152060;28;20019;-81
2023/05/28 06:11:30;;;;;;;20.27;11.47;;;;;;;15.16;88.59;101956.94;5166643;28;20047;-80
2023/05/28 06:14:04;;;;;;;;;;;;;;;15.70;83.25;101963.25;5153148;28;20039;-81
2023/05/28 06:16:35;;;;;;;22.07;11.07;;;;;;;15.04;86.24;101910.19;5153575;29;19915;-80
2023/05/28 06:19:07;;;;;;;21.63;10.17;;;;;;;15.17;86.08;101912.94;5168068;28;20038;-81
2023/05/28 06:21:39;;;;;;;17.50;9.57;;;;;;;15.19;84.21;101903.09;5151735;28;20033;-81
2023/05/28 06:24:10;;;;;;;21.43;10.10;;;;;;;15.43;84.11;101929.72;5152992;28;20380;-81
2023/05/28 06:26:44;;;;;;;22.47;10.30;;;;;;;15.42;84.32;101914.00;5152134;28;20023;-81
2023/05/28 06:29:16;;;;;;;19.13;9.85;;;;;;;15.42;83.67;101901.66;5167136;28;20020;-81
2023/05/28 06:31:48;;;;;;;23.50;10.70;;;;;;;15.52;84.60;101893.13;5153042;28;20035;-81
2023/05/28 06:34:22;;;;;;;21.93;10.47;;;;;;;15.89;81.72;101927.72;5152185;28;20083;-81
2023/05/28 06:36:53;;;;;;;21.25;9.68;;;;;;;16.01;84.91;101922.59;5151136;28;20475;-81
2023/05/28 06:39:25;;;;;;;26.20;10.20;;;;;;;15.87;82.17;101900.56;5167149;28;20042;-81
2023/05/28 06:43:06;;;;;;;;;;;;;;;;;;;;;
2023/05/28 06:45:42;;;;;;;18.43;9.80;;;;;;;16.23;82.45;101894.75;5133048;28;20038;-84
2023/05/28 06:48:24;;;;;;;23.67;10.30;;;;;;;16.76;80.39;101949.34;5150235;28;20028;-84
2023/05/28 06:51:00;;;;;;;19.87;9.53;;;;;;;16.81;76.81;101915.50;5153837;28;20034;-84
2023/05/28 06:53:43;;;;;;;17.83;9.30;;;;;;;17.13;75.29;101936.25;5152800;28;20395;-83
2023/05/28 06:56:22;;;;;;;19.80;10.17;;;;;;;17.19;73.98;101910.31;5153080;28;20093;-84
2023/05/28 06:59:03;;;;;;;23.33;9.53;;;;;;;17.56;73.16;101931.47;5152615;28;20027;-83
2023/05/28 07:01:37;;;;;;;16.03;9.20;;;;;;;17.72;71.57;101915.31;5154130;28;20035;-83
2023/05/28 07:04:11;;;;;;;19.23;9.10;;;;;;;18.37;67.61;101946.78;5133009;28;20042;-83
2023/05/28 07:06:43;;;;;;;20.77;10.05;;;;;;;18.57;66.07;101922.34;5131871;28;20024;-83
2023/05/28 07:09:14;;;;;;;25.20;9.93;;;;;;;18.67;64.26;101909.22;5137162;28;20020;-83
2023/05/28 07:11:46;;;;;;;22.10;10.10;;;;;;;19.15;62.34;101915.28;5134995;28;20051;-83
2023/05/28 07:14:44;;;;;;;19.93;8.83;;;;;;;20.18;59.89;101954.84;5162217;28;20027;-85
2023/05/28 07:17:16;;;;;;;18.10;7.93;;;;;;;20.35;54.06;101910.03;5172667;28;20153;-81
2023/05/28 07:19:50;;;;;;;13.93;7.23;;;;;;;21.07;52.40;101933.22;5153126;28;20119;-80
2023/05/28 07:22:23;;;;;;;13.47;7.73;;;;;;;21.38;50.48;101920.66;5171583;28;20019;-80
2023/05/28 07:24:55;;;;;;;12.27;7.33;;;;;;;21.71;48.81;101898.25;5170140;28;20022;-81
2023/05/28 07:27:26;;;;;;;18.07;7.07;;;;;;;22.31;47.28;101952.41;5171353;28;20428;-80
2023/05/28 07:29:59;;;;;;;12.47;6.60;;;;;;;22.80;46.65;101943.47;5170785;28;20026;-81
2023/05/28 07:32:30;;;;;;;13.07;6.33;;;;;;;22.66;45.60;101944.78;5153592;28;20054;-81
2023/05/28 07:35:02;;;;;;;15.63;6.73;;;;;;;23.08;44.62;101940.81;5171031;28;20035;-81
2023/05/28 07:37:33;;;;;;;15.18;6.78;;;;;;;23.65;43.86;101971.84;5170282;28;20031;-80
2023/05/28 07:40:06;;;;;;;13.38;6.45;;;;;;;24.33;41.57;101968.75;5257425;28;20082;-82
2023/05/28 07:42:45;;;;;;;14.60;6.63;;;;;;;24.76;42.33;101943.94;5186366;28;20026;-82
2023/05/28 07:45:18;;;;;;;13.60;6.03;;;;;;;24.05;40.34;101932.25;5153904;28;20394;-81
2023/05/28 07:47:50;;;;;;;13.93;6.70;;;;;;;24.52;40.89;101966.91;5170703;28;20042;-81
2023/05/28 07:50:24;;;;;;;12.95;6.18;;;;;;;24.68;40.20;101949.25;5153173;28;20103;-81
2023/05/28 07:52:55;;;;;;;18.30;6.60;;;;;;;25.24;40.25;101938.09;5153519;28;20081;-82
2023/05/28 07:55:30;;;;;;;13.65;6.60;;;;;;;25.41;38.41;101924.75;5170151;28;20054;-82
2023/05/28 07:58:01;;;;;;;14.10;7.30;;;;;;;25.66;37.09;101919.44;5154007;28;20030;-82
2023/05/28 08:00:36;;;;;;;14.70;5.78;;;;;;;26.25;37.84;101928.28;5152131;28;20765;-82
2023/05/28 08:03:08;;;;;;;12.95;6.13;;;;;;;26.21;35.47;101935.84;5151267;28;20063;-82
2023/05/28 08:05:39;;;;;;;11.55;5.93;;;;;;;25.77;36.28;101911.06;5133519;28;20033;-82
2023/05/28 08:08:10;;;;;;;14.40;6.60;;;;;;;25.84;36.56;101916.59;5133935;28;20028;-81
2023/05/28 08:10:42;;;;;;;14.55;6.22;;;;;;;25.71;37.09;101950.09;5155076;28;20065;-81
2023/05/28 08:13:16;;;;;;;14.30;6.15;;;;;;;25.67;37.41;101940.72;5152701;28;20027;-80
2023/05/28 08:15:48;;;;;;;13.60;6.10;;;;;;;25.66;37.96;101968.53;5136956;28;20030;-81
2023/05/28 08:21:21;;;;;;;20.23;9.35;;;;;;;25.72;40.74;101967.06;5159941;28;20035;-79
2023/05/28 08:23:54;;;;;;;17.13;9.18;;;;;;;25.55;40.24;101924.09;5169497;28;20429;-81
2023/05/28 08:26:26;;;;;;;14.85;8.80;;;;;;;24.97;41.05;101916.75;5168099;28;20061;-81
2023/05/28 08:29:00;;;;;;;17.58;8.77;;;;;;;25.85;39.74;101911.03;5169888;28;20050;-81
2023/05/28 08:31:31;;;;;;;16.95;8.52;;;;;;;26.58;38.79;101955.91;5156202;28;20034;-81
2023/05/28 08:34:03;;;;;;;16.67;9.02;;;;;;;27.22;38.48;101931.84;5152742;28;20517;-81
2023/05/28 08:36:38;;;;;;;17.83;9.20;;;;;;;27.37;37.53;101936.47;5170468;28;20522;-81
2023/05/28 08:39:12;;;;;;;15.05;8.25;;;;;;;27.72;36.24;101928.81;5152409;28;20031;-82
2023/05/28 08:41:46;;;;;;;16.25;8.02;;;;;;;28.48;35.94;101951.38;5168771;28;20655;-82
2023/05/28 08:44:19;;;;;;;16.08;7.57;;;;;;;28.80;33.26;101934.16;5153698;28;20493;-82
2023/05/28 08:46:51;;;;;;;16.60;7.43;;;;;;;29.69;33.18;101942.19;5170024;28;20034;-82
2023/05/28 08:49:36;;;;;;;14.93;7.65;;;;;;;30.14;33.26;101911.38;5170163;28;20037;-83
2023/05/28 08:52:10;;;;;;;13.45;7.10;;;;;;;30.03;32.43;101912.75;5244641;28;20123;-82
2023/05/28 08:54:45;;;;;;;16.45;8.10;;;;;;;31.00;31.12;101913.91;5278744;28;20024;-83
2023/05/28 08:57:23;;;;;;;14.25;6.88;;;;;;;31.05;30.94;101949.28;5280128;28;20032;-82
2023/05/28 08:59:55;;;;;;;15.65;6.47;;;;;;;31.50;29.85;101932.53;5261386;28;20025;-83
2023/05/28 09:02:42;;;;;;;14.18;7.25;;;;;;;31.11;28.90;101907.88;5280145;28;20032;-83
2023/05/28 09:05:16;;;;;;;14.02;6.20;;;;;;;31.47;28.62;101907.75;5261880;28;20031;-83
2023/05/28 09:07:55;;;;;;;15.20;9.10;;;;;;;31.95;27.43;101895.00;5279148;28;20035;-83
2023/05/28 09:10:32;;;;;;;22.33;12.07;;;;;;;31.95;26.63;101914.81;5225084;28;20039;-83
2023/05/28 09:13:07;;;;;;;17.15;8.25;;;;;;;32.14;25.87;101949.38;5140407;28;20032;-82
2023/05/28 09:15:43;;;;;;;19.05;6.13;;;;;;;31.79;27.24;101907.09;5145339;29;20028;-83
2023/05/28 09:18:19;;;;;;;14.10;5.15;;;;;;;32.66;26.19;101919.66;5132838;29;20360;-81
2023/05/28 09:20:51;;;;;;;11.75;5.82;;;;;;;32.51;25.14;101943.47;5160455;28;20502;-82
2023/05/28 09:23:28;;;;;;;16.33;6.55;;;;;;;32.83;25.03;101917.28;5146538;28;20055;-82
2023/05/28 09:26:02;;;;;;;16.40;7.05;;;;;;;33.31;24.50;101908.88;5163547;28;20061;-82
2023/05/28 09:28:43;;;;;;;13.75;5.18;;;;;;;33.16;25.07;101885.63;5157561;28;20027;-82
2023/05/28 09:31:26;;;;;;;13.43;5.18;;;;;;;32.43;25.14;101912.00;5194894;28;20097;-82
2023/05/28 09:34:04;;;;;;;11.32;5.15;;;;;;;32.80;25.79;101912.28;5134040;28;20063;-82
2023/05/28 09:36:36;;;;;;;11.32;4.50;;;;;;;32.91;24.60;101931.63;5131119;28;20064;-81
2023/05/28 09:39:26;;;;;;;9.45;4.78;;;;;;;33.54;24.95;101937.31;5132297;29;20020;-82
2023/05/28 09:42:09;;;;;;;12.00;4.95;;;;;;;33.17;24.03;101930.69;5177179;28;20446;-83
2023/05/28 09:44:44;;;;;;;11.45;4.78;;;;;;;32.64;24.29;101910.91;5155781;28;20225;-82
2023/05/28 09:47:22;;;;;;;11.07;4.90;;;;;;;32.89;24.11;101933.72;5204051;28;20041;-82
2023/05/28 09:49:54;;;;;;;8.85;4.35;;;;;;;32.90;23.83;101902.84;5256489;28;20022;-83
2023/05/28 09:52:29;;;;;;;7.72;3.80;;;;;;;33.15;23.97;101918.38;5258756;28;20504;-82
2023/05/28 09:55:09;;;;;;;10.07;3.95;;;;;;;32.21;23.68;101923.94;5157598;28;20059;-83
2023/05/28 09:57:56;;;;;;;9.13;3.47;;;;;;;31.99;24.30;101885.47;5165706;28;20194;-82
2023/05/28 10:00:33;;;;;;;8.38;3.88;;;;;;;32.22;24.83;101893.09;5152936;28;20023;-83
2023/05/28 10:03:18;;;;;;;10.65;4.43;;;;;;;32.53;23.97;101936.78;5152777;28;20414;-83
2023/05/28 10:06:04;;;;;;;10.98;4.07;;;;;;;33.13;24.14;101885.22;5151346;28;20043;-83
2023/05/28 10:08:40;;;;;;;12.45;4.72;;;;;;;32.86;23.91;101886.19;5151751;28;20709;-83
2023/05/28 10:11:29;;;;;;;9.10;4.28;;;;;;;32.76;23.39;101875.81;5168689;28;20078;-84
2023/05/28 10:14:07;;;;;;;11.30;4.63;;;;;;;32.60;24.35;101893.41;5169404;28;20466;-84
2023/05/28 10:16:39;;;;;;;10.18;3.88;;;;;;;33.10;23.63;101923.59;5154772;28;20125;-83
2023/05/28 10:19:15;;;;;;;8.50;4.45;;;;;;;33.90;23.11;101926.78;5155585;28;20482;-83
2023/05/28 10:22:04;;;;;;;9.75;4.50;;;;;;;34.03;23.26;101890.50;5172570;28;20366;-84
2023/05/28 10:24:44;;;;;;;10.68;4.55;;;;;;;34.01;22.32;101898.03;5158456;28;20038;-82
2023/05/28 10:27:16;;;;;;;9.93;3.97;;;;;;;33.26;22.70;101923.13;5175716;28;20026;-82
2023/05/28 10:29:50;;;;;;;11.15;4.55;;;;;;;33.52;22.66;101893.25;5258576;28;20033;-83
2023/05/28 10:32:24;;;;;;;10.02;4.50;;;;;;;34.04;22.60;101901.13;5277852;28;20024;-82
2023/05/28 10:35:07;;;;;;;6.95;3.60;;;;;;;34.11;22.71;101913.81;5159845;28;20047;-83
2023/05/28 10:37:41;;;;;;;11.40;4.45;;;;;;;33.32;22.74;101924.13;5212106;28;20046;-83
2023/05/28 10:40:22;;;;;;;10.93;4.47;;;;;;;33.08;23.46;101904.81;5216748;28;20060;-83
2023/05/28 10:42:53;;;;;;;11.85;4.72;;;;;;;33.32;22.29;101922.22;5197300;28;20032;-83
2023/05/28 10:45:41;;;;;;;10.80;4.30;;;;;;;33.52;22.73;101909.53;5213381;28;20037;-83
2023/05/28 10:48:22;;;;;;;9.43;4.00;;;;;;;33.02;23.27;101895.69;5203894;28;20037;-83
2023/05/28 10:51:00;;;;;;;9.15;3.83;;;;;;;32.97;23.20;101917.22;5209588;28;20634;-82
2023/05/28 10:53:33;;;;;;;7.88;3.90;;;;;;;32.65;23.27;101893.59;5216847;28;20034;-83
2023/05/28 10:56:07;;;;;;;8.85;3.83;;;;;;;33.06;21.98;101893.38;5232850;28;20039;-82
2023/05/28 10:58:45;;;;;;;9.68;3.97;;;;;;;33.18;22.10;101920.66;5194451;28;20030;-82
2023/05/28 11:01:19;;;;;;;9.32;3.92;;;;;;;32.49;22.88;101946.38;5217030;28;20120;-81
2023/05/28 11:03:54;;;;;;;7.45;4.30;;;;;;;32.76;22.37;101891.25;5170144;28;20096;-82
2023/05/28 11:06:28;;;;;;;9.18;4.72;;;;;;;32.22;23.12;101908.53;5198744;28;20109;-82
2023/05/28 11:09:05;;;;;;;12.00;4.25;;;;;;;32.55;23.24;101885.09;5242235;28;20111;-82
2023/05/28 11:11:48;;;;;;;;;;;;;;;;;;;;;
2023/05/28 11:14:19;;;;;;;9.25;4.28;;;;;;;31.41;24.11;101903.16;5217243;28;20028;-82
2023/05/28 11:16:51;;;;;;;7.75;4.32;;;;;;;32.47;23.16;101896.97;5236554;28;20034;-82
2023/05/28 11:19:22;;;;;;;7.03;3.75;;;;;;;32.29;24.21;101931.00;5207603;28;20081;-82
2023/05/28 11:21:57;;;;;;;12.18;4.35;;;;;;;32.02;24.33;101897.72;5174537;28;20023;-82
2023/05/28 11:24:29;;;;;;;9.55;3.97;;;;;;;31.93;23.34;101891.66;5210943;28;20379;-82
2023/05/28 11:27:00;;;;;;;7.13;3.80;;;;;;;31.38;24.85;101921.44;5191266;28;20030;-82
2023/05/28 11:29:32;;;;;;;8.48;3.28;;;;;;;32.14;24.23;101949.38;5203257;28;20031;-82
2023/05/28 11:32:04;;;;;;;9.05;3.85;;;;;;;31.23;24.18;101937.03;5192374;28;20196;-85
2023/05/28 11:34:44;;;;;;;11.63;3.63;;;;;;;31.72;23.95;101915.22;5213334;28;20040;-84
2023/05/28 11:37:16;;;;;;;10.38;4.80;;;;;;;31.20;24.13;101910.38;5214658;28;20037;-83
2023/05/28 11:39:49;;;;;;;8.90;4.00;;;;;;;30.23;24.54;101887.78;5190165;28;20385;-84
2023/05/28 11:42:24;;;;;;;10.20;3.92;;;;;;;30.97;24.84;101884.53;5200302;28;20023;-84
2023/05/28 11:44:56;;;;;;;8.65;3.92;;;;;;;30.78;24.04;101895.06;5259179;28;20020;-84
2023/05/28 11:47:35;;;;;;;6.93;3.85;;;;;;;31.11;25.39;101882.69;5175563;28;20724;-84
2023/05/28 11:50:08;;;;;;;9.27;4.32;;;;;;;31.36;24.65;101896.47;5185041;28;20073;-83
2023/05/28 11:52:40;;;;;;;10.50;4.55;;;;;;;31.15;23.74;101900.19;5189489;28;20380;-84
2023/05/28 11:55:31;;;;;;;8.38;4.15;;;;;;;31.73;22.95;101903.38;5160899;28;20038;-84
2023/05/28 11:58:03;;;;;;;9.65;5.13;;;;;;;31.58;23.21;101866.53;5171045;28;20483;-84
2023/05/28 12:00:35;;;;;;;8.20;4.38;;;;;;;31.41;22.69;101889.63;5154605;28;20022;-84
2023/05/28 12:03:10;;;;;;;10.35;3.72;;;;;;;31.44;23.35;101897.31;5154443;28;20019;-84
2023/05/28 12:05:42;;;;;;;11.27;4.00;;;;;;;31.20;24.64;101900.41;5153420;28;20038;-84
2023/05/28 12:08:19;;;;;;;10.13;4.00;;;;;;;31.59;24.36;101897.94;5170069;28;20021;-84